Portada
METAR-TAF:

METAR-TAF

Aeroports :

Asunción, Paraguai

latitud: 25-16S, longitud: 057-38W, altitud: 101 m

Observació

L'informe es va fer fa 27 minuts, a les 23:00 UTC
Vent 3 kt del Sud/Sud-Oest
Temperatura 16°C
Humitat 72%
Pressió 1020 hPa
Visibilitat: 9000 m

METAR: SGAS 242300Z 20003KT 9000 NSC 16/11 Q1020

Hora: 19:27 (23:27 UTC)

Pronòstic

L'informe es va fer fa 5 hores i 42 minuts, a les 17:45 UTC
Pronòstic vàlid del 24 a les 18 UTC al 25 a les 18 UTC
Vent 3 kt amb direcció variable
Visibilitat 10 km o més
sense núvols per sota de 1500 mi sense presència de cumulonimbus.

TAF: SGAS 241745Z 2418/2518 VRB03KT CAVOK TX23/2519Z TN09/2509Z

Observacions i pronòstics meteorològics de més de 4000 aeroports (METAR i TAF).

Les estacions disponibles són els punts grocs i vermells al mapa.

Posi el ratolí al punt desitjat per veure el nom de l'estació.

Feu clic per veure les observacions i els pronòstics meteorològics.

Per canviar el mapa: feu clic els botons verds amb una creu de color negre per apropar; al botó verd amb un guió per allunyar la imatge; o en les fletxes verdes per a mapes adjacents.


METAR-TAF: